This demonstration page uses our WeatherBlox Daily Observations layout. Learn more.

Left ArrowRight Arrow

36.19886, -115.1175

Hourly Observations for May 10, 2021

Temp ( °F °C ) Dew Point ( °F °C ) Humidity (%) Winds ( mph kmh ) Pressure ( in mb ) Visibility ( mi km ) Precip ( " mm )
12:53 am 00:53 Clear 73 22.8 16 -8.9 11 11 NNW 3 6 29.69 1005 10 16.0934 N/A
1:53 am 01:53 Clear 70 21.1 19 -7.2 14 14 WSW 5 7 29.68 1005 10 16.0934 N/A
2:53 am 02:53 Clear 71 21.7 18 -7.8 13 13 N N/A 29.69 1005 10 16.0934 N/A
3:53 am 03:53 Clear 68 20 13 -10.6 12 12 undefined N/A 29.72 1006 10 16.0934 N/A
4:53 am 04:53 Clear 70 21.1 15 -9.4 12 12 NNE 9 15 29.75 1007 10 16.0934 N/A
5:53 am 05:53 Sunny 71 21.7 20 -6.7 14 14 N 9 15 29.76 1008 10 16.0934 N/A
6:53 am 06:53 Sunny 71 21.7 22 -5.6 16 16 NNW 12 19 29.79 1009 10 16.0934 N/A
7:53 am 07:53 Sunny 74 23.3 24 -4.4 15 15 NNW 13 20 29.8 1009 10 16.0934 N/A
8:53 am 08:53 Sunny 77 25 22 -5.6 13 13 NNW 12 19 29.82 1010 10 16.0934 N/A
9:53 am 09:53 Sunny 77 25 22 -5.6 13 13 VRB 3 6 29.83 1010 10 16.0934 N/A
10:53 am 10:53 Sunny 79 26.1 25 -3.9 14 14 S 5 7 29.82 1010 10 16.0934 N/A
11:53 am 11:53 Sunny 83 28.3 23 -5 11 11 ENE 10 17 29.82 1010 10 16.0934 N/A
12:53 pm 12:53 Sunny 84 28.9 24 -4.4 11 11 NW 6 9 29.79 1009 10 16.0934 N/A
1:53 pm 13:53 Sunny 85 29.4 24 -4.4 11 11 VRB 5 7 29.77 1008 10 16.0934 N/A
2:53 pm 14:53 Sunny 86 30 23 -5 10 10 N N/A 29.75 1007 10 16.0934 N/A
3:53 pm 15:53 Sunny 87 30.6 24 -4.4 10 10 VRB 3 6 29.72 1007 10 16.0934 N/A
4:53 pm 16:53 Sunny 89 31.7 24 -4.4 9 9 VRB 6 9 29.7 1006 10 16.0934 N/A
5:53 pm 17:53 Sunny 89 31.7 23 -5 9 9 VRB 6 9 29.7 1006 10 16.0934 N/A
6:53 pm 18:53 Sunny 89 31.7 18 -7.8 7 7 NNW 8 13 29.7 1006 10 16.0934 N/A
7:53 pm 19:53 Clear 87 30.6 22 -5.6 9 9 N N/A 29.7 1006 10 16.0934 N/A
8:53 pm 20:53 Clear 84 28.9 24 -4.4 11 11 NW 7 11 29.73 1007 10 16.0934 N/A
9:53 pm 21:53 Clear 83 28.3 6 -14.4 5 5 NNW 8 13 29.75 1008 10 16.0934 N/A
10:53 pm 22:53 Clear 78 25.6 9 -12.8 7 7 N 12 19 29.77 1008 10 16.0934 N/A
11:53 pm 23:53 Clear 77 25 10 -12.2 8 8 NNW 9 15 29.78 1008 10 16.0934 N/A

Powered by AerisWeather